Time;durP1;ratioP1;P1;durP2;ratioP2;P2;SDS_P1;SDS_P2;PMS_P1;PMS_P2;Temp;Humidity;BMP_temperature;BMP_pressure;BME280_temperature;BME280_humidity;BME280_pressure;Samples;Min_cycle;Max_cycle;Signal;HPM_P1;HPM_P2
2024/04/11 00:01:10;;;;;;;;;5.75;2.75;;;;;15.32;51.08;102527.78;5556070;25;67753;-53
2024/04/11 00:03:36;;;;;;;;;4.75;3.00;;;;;15.31;50.49;102520.75;5550567;25;43790;-53
2024/04/11 00:06:01;;;;;;;;;2.00;2.00;;;;;15.33;50.17;102528.66;5539355;25;45599;-52
2024/04/11 00:08:27;;;;;;;;;3.75;3.75;;;;;15.30;51.22;102524.31;5543266;25;43956;-53
2024/04/11 00:10:52;;;;;;;;;4.25;2.25;;;;;15.32;51.12;102522.50;5538912;25;46529;-49
2024/04/11 00:13:18;;;;;;;;;2.75;2.75;;;;;15.33;51.68;102523.38;5540574;25;43824;-54
2024/04/11 00:15:46;;;;;;;;;3.25;3.25;;;;;15.30;50.68;102519.03;5539436;25;44734;-51
2024/04/11 00:18:11;;;;;;;;;3.50;3.00;;;;;15.29;51.40;102519.94;5506627;25;43911;-53
2024/04/11 00:20:37;;;;;;;;;5.25;3.00;;;;;15.28;50.48;102517.31;5540931;25;68369;-49
2024/04/11 00:23:02;;;;;;;;;6.00;3.00;;;;;15.27;51.53;102518.22;5506683;25;47296;-52
2024/04/11 00:25:28;;;;;;;;;4.50;2.25;;;;;15.25;50.75;102510.34;5537701;25;45075;-52
2024/04/11 00:27:53;;;;;;;;;2.00;2.00;;;;;15.23;51.05;102501.59;5539759;25;65986;-53
2024/04/11 00:30:19;;;;;;;;;4.25;2.00;;;;;15.21;51.26;102500.75;5555688;25;43890;-55
2024/04/11 00:32:44;;;;;;;;;3.75;2.75;;;;;15.20;51.75;102509.56;5540450;25;43986;-52
2024/04/11 00:35:10;;;;;;;;;3.25;2.00;;;;;15.20;51.58;102504.28;5561806;25;44725;-55
2024/04/11 00:37:36;;;;;;;;;2.50;2.00;;;;;15.15;51.79;102499.06;5518758;25;68248;-53
2024/04/11 00:40:02;;;;;;;;;3.75;2.25;;;;;15.16;52.31;102502.59;5542301;25;45108;-50
2024/04/11 00:42:28;;;;;;;;;3.00;3.00;;;;;15.12;51.85;102488.59;5537935;25;43994;-54
2024/04/11 00:44:53;;;;;;;;;3.00;3.00;;;;;15.15;52.09;102492.94;5531632;25;45333;-53
2024/04/11 00:47:20;;;;;;;;;3.00;2.00;;;;;15.12;52.50;102493.88;5528048;25;43767;-55
2024/04/11 00:49:45;;;;;;;;;3.50;2.00;;;;;15.12;52.13;102503.53;5511930;25;44038;-51
2024/04/11 00:52:13;;;;;;;;;6.75;3.00;;;;;15.11;51.76;102510.56;5551927;25;43709;-54
2024/04/11 00:54:38;;;;;;;;;6.00;3.00;;;;;15.11;51.66;102505.31;5508153;25;44671;-53
2024/04/11 00:57:07;;;;;;;;;1.00;1.00;;;;;15.10;52.48;102515.88;5540703;25;57869;-52
2024/04/11 00:59:39;;;;;;;;;3.75;3.25;;;;;15.08;51.76;102510.63;5545841;25;43995;-52
2024/04/11 01:02:06;;;;;;;;;3.25;2.75;;;;;15.08;52.65;102501.84;5515597;25;43981;-55
2024/04/11 01:04:35;;;;;;;;;3.75;2.00;;;;;15.05;52.27;102507.16;5540091;25;48996;-54
2024/04/11 01:07:09;;;;;;;;;4.25;2.00;;;;;15.02;53.09;102499.34;5505080;25;43978;-53
2024/04/11 01:09:38;;;;;;;;;1.00;1.00;;;;;15.02;52.26;102499.34;5538796;25;44026;-55
2024/04/11 01:12:03;;;;;;;;;3.75;2.00;;;;;14.99;53.07;102509.00;5541196;25;43834;-54
2024/04/11 01:14:31;;;;;;;;;4.50;3.00;;;;;14.99;52.87;102516.06;5500683;25;45901;-54
2024/04/11 01:16:56;;;;;;;;;4.50;2.00;;;;;14.92;53.01;102509.16;5537265;25;44390;-53
2024/04/11 01:19:23;;;;;;;;;6.00;2.00;;;;;14.98;52.55;102514.34;5508579;25;44961;-51
2024/04/11 01:21:49;;;;;;;;;2.00;1.50;;;;;14.95;52.72;102522.28;5536721;25;43973;-52
2024/04/11 01:24:14;;;;;;;;;2.00;1.00;;;;;14.96;53.08;102522.28;5536004;25;44104;-54
2024/04/11 01:26:40;;;;;;;;;2.50;2.00;;;;;14.98;52.53;102523.13;5504828;25;72648;-52
2024/04/11 01:29:07;;;;;;;;;2.00;2.00;;;;;14.98;52.81;102522.25;5546673;25;66922;-54
2024/04/11 01:31:35;;;;;;;;;4.25;1.00;;;;;14.98;53.11;102523.13;5508712;25;44213;-55
2024/04/11 01:34:00;;;;;;;;;2.00;2.00;;;;;14.98;53.74;102520.47;5537744;25;44071;-55
2024/04/11 01:36:26;;;;;;;;;3.75;2.00;;;;;14.99;53.14;102516.06;5558292;25;69138;-53
2024/04/11 01:38:51;;;;;;;;;3.75;2.00;;;;;14.98;53.72;102517.84;5549725;25;55191;-54
2024/04/11 01:41:16;;;;;;;;;6.25;2.50;;;;;15.00;52.89;102517.81;5540042;25;52345;-52
2024/04/11 01:43:42;;;;;;;;;5.00;1.25;;;;;15.02;53.48;102510.75;5514487;25;44988;-53
2024/04/11 01:46:07;;;;;;;;;2.50;1.50;;;;;15.01;52.53;102498.44;5538158;25;69699;-52
2024/04/11 01:48:33;;;;;;;;;1.00;1.00;;;;;14.99;52.96;102506.38;5551450;25;44058;-54
2024/04/11 01:50:58;;;;;;;;;2.75;2.00;;;;;15.00;54.28;102504.63;5549153;25;62932;-52
2024/04/11 01:53:24;;;;;;;;;1.75;1.50;;;;;14.98;53.21;102495.88;5538079;25;43960;-51
2024/04/11 01:55:49;;;;;;;;;4.00;1.00;;;;;15.02;53.28;102494.06;5511166;25;44037;-52
2024/04/11 01:58:17;;;;;;;;;3.00;1.00;;;;;15.03;53.98;102501.91;5551702;25;45226;-51
2024/04/11 02:00:44;;;;;;;;;3.00;2.00;;;;;15.00;53.68;102491.44;5510440;25;69902;-53
2024/04/11 02:03:10;;;;;;;;;4.25;2.00;;;;;15.01;53.84;102495.81;5539114;25;45793;-55
2024/04/11 02:05:36;;;;;;;;;3.50;1.75;;;;;14.99;54.54;102503.75;5547808;25;44019;-54
2024/04/11 02:08:02;;;;;;;;;3.50;2.00;;;;;15.00;54.67;102488.81;5540268;25;68118;-53
2024/04/11 02:10:28;;;;;;;;;5.25;2.00;;;;;15.02;55.18;102492.28;5558082;25;44989;-55
2024/04/11 02:12:54;;;;;;;;;5.75;1.75;;;;;15.02;54.85;102494.94;5540701;25;43870;-56
2024/04/11 02:15:19;;;;;;;;;4.25;1.00;;;;;14.97;54.12;102489.72;5543225;25;71602;-54
2024/04/11 02:17:44;;;;;;;;;1.00;1.00;;;;;15.03;54.90;102491.38;5537165;25;68995;-57
2024/04/11 02:20:13;;;;;;;;;1.50;0.00;;;;;15.04;55.56;102494.91;5558996;25;70562;-53
2024/04/11 02:22:39;;;;;;;;;2.50;1.00;;;;;15.04;55.25;102489.63;5541835;25;45793;-57
2024/04/11 02:25:05;;;;;;;;;2.50;0.00;;;;;15.01;55.45;102482.63;5503766;25;44155;-52
2024/04/11 02:27:30;;;;;;;;;2.00;1.00;;;;;15.00;55.14;102475.63;5539601;25;43853;-53
2024/04/11 02:29:55;;;;;;;;;6.25;1.00;;;;;14.96;55.46;102474.81;5554598;25;69269;-52
2024/04/11 02:32:21;;;;;;;;;2.00;0.75;;;;;14.94;55.22;102475.72;5536036;25;44223;-54
2024/04/11 02:34:47;;;;;;;;;1.25;1.00;;;;;14.90;56.67;102480.19;5537961;25;43807;-53
2024/04/11 02:37:14;;;;;;;;;2.25;1.00;;;;;14.87;56.04;102490.78;5538114;25;44035;-54
2024/04/11 02:39:39;;;;;;;;;3.50;0.00;;;;;14.87;57.31;102495.19;5540591;25;43857;-52
2024/04/11 02:42:05;;;;;;;;;3.00;1.75;;;;;14.88;56.06;102489.03;5538950;25;44392;-55
2024/04/11 02:44:33;;;;;;;;;2.25;1.00;;;;;14.85;57.24;102482.03;5538776;25;43966;-53
2024/04/11 02:47:00;;;;;;;;;1.00;1.00;;;;;14.79;56.75;102469.81;5537161;25;43844;-54
2024/04/11 02:49:26;;;;;;;;;1.50;0.00;;;;;14.85;57.10;102491.69;5535701;25;43911;-54
2024/04/11 02:51:51;;;;;;;;;1.00;1.00;;;;;14.83;57.50;102493.50;5536449;25;44726;-51
2024/04/11 02:54:17;;;;;;;;;0.75;0.75;;;;;14.84;57.53;102505.75;5538876;25;43925;-53
2024/04/11 02:56:43;;;;;;;;;2.25;1.00;;;;;14.84;58.15;102506.66;5538080;25;44129;-54
2024/04/11 02:59:11;;;;;;;;;3.75;0.25;;;;;14.86;57.83;102504.88;5537013;25;72848;-54
2024/04/11 03:01:37;;;;;;;;;3.50;1.00;;;;;14.84;57.65;102506.66;5537883;25;46606;-53
2024/04/11 03:04:02;;;;;;;;;0.50;0.50;;;;;14.85;59.08;102496.97;5538569;25;44542;-55
2024/04/11 03:06:27;;;;;;;;;2.25;1.00;;;;;14.85;58.24;102495.19;5540014;25;43692;-52
2024/04/11 03:08:56;;;;;;;;;2.00;1.00;;;;;14.81;58.03;102489.09;5538846;25;43950;-53
2024/04/11 03:11:23;;;;;;;;;2.00;0.50;;;;;14.78;58.31;102477.75;5537937;25;45697;-55
2024/04/11 03:13:49;;;;;;;;;2.75;1.00;;;;;14.76;58.30;102477.78;5468071;25;44382;-53
2024/04/11 03:16:15;;;;;;;;;2.25;1.00;;;;;14.73;59.83;102482.22;5525374;25;44256;-50
2024/04/11 03:18:41;;;;;;;;;1.00;1.00;;;;;14.72;59.47;102484.00;5540493;25;44557;-52
2024/04/11 03:21:07;;;;;;;;;1.00;1.00;;;;;14.70;59.13;102484.94;5539896;25;44723;-52
2024/04/11 03:23:32;;;;;;;;;1.00;1.00;;;;;14.68;60.01;102481.44;5545459;25;71804;-53
2024/04/11 03:26:01;;;;;;;;;0.75;0.75;;;;;14.63;59.87;102472.75;5536697;25;59773;-55
2024/04/11 03:28:26;;;;;;;;;1.00;1.00;;;;;14.60;60.55;102478.94;5543194;25;44085;-52
2024/04/11 03:31:04;;;;;;;;;1.50;1.50;;;;;14.58;60.23;102478.94;5552549;25;74290;-49
2024/04/11 03:33:30;;;;;;;;;3.00;1.50;;;;;14.55;60.67;102473.69;5522122;25;44027;-54
2024/04/11 03:35:57;;;;;;;;;1.25;1.00;;;;;14.55;61.48;102483.34;5564619;25;43903;-51
2024/04/11 03:38:24;;;;;;;;;1.75;0.75;;;;;14.53;61.19;102474.63;5499353;25;43826;-55
2024/04/11 03:41:02;;;;;;;;;1.75;1.75;;;;;14.52;61.43;102471.13;5529460;25;44946;-54
2024/04/11 03:43:28;;;;;;;;;3.25;2.00;;;;;14.52;61.05;102471.13;5508109;25;44010;-54
2024/04/11 03:46:18;;;;;;;;;2.75;2.00;;;;;14.53;62.35;102472.84;5539484;25;43989;-49
2024/04/11 03:48:44;;;;;;;;;2.00;1.00;;;;;14.52;61.98;102462.31;5550551;25;43640;-54
2024/04/11 03:51:14;;;;;;;;;0.75;0.75;;;;;14.51;62.16;102464.09;5541001;25;44265;-52
2024/04/11 03:53:43;;;;;;;;;1.00;1.00;;;;;14.49;62.39;102460.63;5545908;25;44354;-52
2024/04/11 03:56:09;;;;;;;;;3.00;1.00;;;;;14.49;63.12;102465.03;5529113;25;43674;-52
2024/04/11 03:58:37;;;;;;;;;3.00;0.00;;;;;14.47;62.51;102467.69;5535126;25;44172;-51
2024/04/11 04:01:05;;;;;;;;;3.25;1.00;;;;;14.47;63.00;102459.78;5537738;25;45700;-49
2024/04/11 04:03:33;;;;;;;;;2.25;0.25;;;;;14.50;63.12;102461.47;5539043;25;44069;-49
2024/04/11 04:05:58;;;;;;;;;1.00;0.25;;;;;14.50;63.08;102470.28;5527638;25;43954;-52
2024/04/11 04:08:23;;;;;;;;;0.75;0.75;;;;;14.51;62.61;102482.53;5535508;25;43953;-51
2024/04/11 04:10:49;;;;;;;;;2.00;2.00;;;;;14.54;62.85;102482.50;5501458;25;72938;-53
2024/04/11 04:13:15;;;;;;;;;5.25;1.00;;;;;14.56;62.88;102488.59;5538952;25;43958;-49
2024/04/11 04:15:40;;;;;;;;;1.00;1.00;;;;;14.60;63.43;102481.56;5539012;25;43969;-51
2024/04/11 04:18:07;;;;;;;;;2.00;1.00;;;;;14.62;63.28;102471.84;5505170;25;72587;-53
2024/04/11 04:20:33;;;;;;;;;4.25;1.00;;;;;14.61;63.70;102481.53;5559844;25;45748;-52
2024/04/11 04:22:58;;;;;;;;;1.25;1.25;;;;;14.61;63.39;102493.84;5537945;25;54555;-53
2024/04/11 04:25:25;;;;;;;;;2.00;1.00;;;;;14.37;63.81;102455.53;5539034;25;43787;-54
2024/04/11 04:27:51;;;;;;;;;1.75;1.00;;;;;14.57;63.71;102490.38;5505165;25;44040;-54
2024/04/11 04:30:16;;;;;;;;;1.00;1.00;;;;;14.58;64.31;102492.13;5538291;25;44715;-55
2024/04/11 04:32:42;;;;;;;;;1.25;1.00;;;;;14.60;62.81;102492.09;5538448;25;71965;-53
2024/04/11 04:35:09;;;;;;;;;2.50;2.00;;;;;14.60;64.39;102497.38;5506451;25;43626;-54
2024/04/11 04:37:39;;;;;;;;;3.00;1.00;;;;;14.60;63.56;102494.72;5538388;25;44153;-50
2024/04/11 04:40:06;;;;;;;;;2.25;1.00;;;;;14.58;63.92;102478.94;5538178;25;45229;-50
2024/04/11 04:42:31;;;;;;;;;3.00;1.00;;;;;14.56;64.40;102461.41;5526798;25;43914;-51
2024/04/11 04:44:57;;;;;;;;;1.00;1.00;;;;;14.52;64.71;102468.47;5505819;25;43873;-51
2024/04/11 04:47:28;;;;;;;;;0.25;0.25;;;;;14.49;64.57;102478.19;5527193;25;44002;-50
2024/04/11 04:49:55;;;;;;;;;1.75;0.75;;;;;14.43;64.91;102493.19;5550055;25;44901;-50
2024/04/11 04:52:24;;;;;;;;;2.50;1.00;;;;;14.39;65.47;102501.16;5545098;25;43902;-49
2024/04/11 04:54:51;;;;;;;;;2.00;2.00;;;;;14.36;65.31;102488.91;5550589;25;43938;-49
2024/04/11 04:57:16;;;;;;;;;0.75;0.75;;;;;14.34;64.64;102487.19;5518585;25;44366;-53
2024/04/11 04:59:42;;;;;;;;;2.00;0.25;;;;;14.32;64.56;102495.09;5539406;25;45167;-51
2024/04/11 05:02:09;;;;;;;;;2.00;1.50;;;;;14.32;65.90;102494.25;5539211;25;65648;-51
2024/04/11 05:04:35;;;;;;;;;1.00;1.00;;;;;14.31;65.07;102506.53;5507916;25;44015;-52
2024/04/11 05:07:00;;;;;;;;;2.75;1.00;;;;;14.33;65.16;102517.06;5566876;25;43950;-54
2024/04/11 05:09:26;;;;;;;;;3.25;1.00;;;;;14.33;65.03;102520.56;5540575;25;62408;-51
2024/04/11 05:11:51;;;;;;;;;3.50;2.00;;;;;14.32;66.02;102508.28;5540094;25;44178;-52
2024/04/11 05:14:16;;;;;;;;;4.00;1.00;;;;;14.31;65.45;102510.94;5550436;25;63651;-51
2024/04/11 05:16:43;;;;;;;;;3.00;1.00;;;;;14.29;66.58;102505.69;5538814;25;71745;-53
2024/04/11 05:19:11;;;;;;;;;1.50;1.50;;;;;14.33;65.86;102504.75;5535211;25;45601;-52
2024/04/11 05:21:39;;;;;;;;;4.25;1.25;;;;;14.34;66.21;102510.88;5570708;25;43894;-51
2024/04/11 05:24:04;;;;;;;;;2.00;1.00;;;;;14.35;66.49;102502.09;5543018;25;44286;-54
2024/04/11 05:26:31;;;;;;;;;3.00;1.75;;;;;14.36;66.78;102506.47;5562131;25;44072;-52
2024/04/11 05:28:57;;;;;;;;;2.00;2.00;;;;;14.37;67.07;102508.22;5536096;25;45713;-50
2024/04/11 05:31:25;;;;;;;;;2.00;2.00;;;;;14.38;67.10;102504.69;5497067;25;44353;-49
2024/04/11 05:33:54;;;;;;;;;2.00;2.00;;;;;14.42;66.50;102493.22;5547670;25;43839;-50
2024/04/11 05:36:25;;;;;;;;;2.00;2.00;;;;;14.43;67.15;102490.56;5521746;25;44071;-53
2024/04/11 05:38:51;;;;;;;;;4.25;2.00;;;;;14.42;67.00;102494.06;5513662;25;45620;-59
2024/04/11 05:41:16;;;;;;;;;3.50;1.50;;;;;14.42;67.01;102506.38;5554956;25;44406;-48
2024/04/11 05:43:42;;;;;;;;;5.75;3.00;;;;;14.41;67.56;102512.53;5550538;25;43968;-54
2024/04/11 05:46:13;;;;;;;;;2.75;1.25;;;;;14.41;66.92;102507.28;5536003;25;43997;-53
2024/04/11 05:48:39;;;;;;;;;2.50;2.00;;;;;14.44;67.69;102505.47;5531612;25;44874;-58
2024/04/11 05:51:05;;;;;;;;;3.75;2.25;;;;;14.49;67.87;102521.22;5540613;25;43914;-54
2024/04/11 05:53:36;;;;;;;;;4.00;2.25;;;;;14.52;67.15;102521.19;5540372;25;44018;-48
2024/04/11 05:56:04;;;;;;;;;1.75;1.75;;;;;14.57;67.86;102535.16;5540086;25;43918;-50
2024/04/11 05:58:30;;;;;;;;;1.75;1.75;;;;;14.61;67.43;102534.25;5539302;25;44837;-53
2024/04/11 06:00:56;;;;;;;;;3.00;2.00;;;;;14.67;67.62;102535.03;5540909;25;44010;-55
2024/04/11 06:03:22;;;;;;;;;3.75;3.00;;;;;14.71;67.71;102537.59;5574053;25;43878;-56
2024/04/11 06:05:47;;;;;;;;;5.00;2.00;;;;;14.76;66.83;102542.81;5505920;25;44100;-58
2024/04/11 06:08:12;;;;;;;;;4.00;2.00;;;;;14.83;68.00;102552.34;5524095;25;67813;-50
2024/04/11 06:10:38;;;;;;;;;1.00;1.00;;;;;14.87;67.69;102564.56;5537027;25;71852;-49
2024/04/11 06:13:03;;;;;;;;;5.00;3.00;;;;;14.91;67.10;102571.56;5535213;25;44047;-51
2024/04/11 06:15:29;;;;;;;;;4.75;2.50;;;;;14.94;66.85;102565.34;5528693;25;44060;-54
2024/04/11 06:17:54;;;;;;;;;5.00;3.00;;;;;14.98;67.42;102565.28;5505746;25;44789;-54
2024/04/11 06:20:21;;;;;;;;;3.75;3.00;;;;;15.02;67.29;102570.53;5540019;25;44465;-53
2024/04/11 06:22:52;;;;;;;;;4.00;2.25;;;;;15.03;66.39;102573.13;5507051;25;44139;-55
2024/04/11 06:25:18;;;;;;;;;4.00;2.00;;;;;15.03;67.26;102575.75;5539207;25;44938;-55
2024/04/11 06:27:43;;;;;;;;;4.00;2.00;;;;;15.02;66.99;102576.66;5540294;25;45016;-56
2024/04/11 06:30:14;;;;;;;;;4.00;3.00;;;;;15.04;67.14;102577.50;5535955;25;70267;-58
2024/04/11 06:32:43;;;;;;;;;2.00;2.00;;;;;15.08;67.00;102578.31;5460555;25;45129;-54
2024/04/11 06:35:09;;;;;;;;;3.50;2.50;;;;;15.11;66.04;102570.38;5538338;25;43928;-53
2024/04/11 06:37:35;;;;;;;;;3.25;3.00;;;;;15.10;66.42;102563.34;5536699;25;45489;-56
2024/04/11 06:40:08;;;;;;;;;2.25;2.25;;;;;15.14;66.42;102581.75;5539732;25;46703;-59
2024/04/11 06:42:40;;;;;;;;;3.00;3.00;;;;;15.19;66.44;102593.09;5541960;25;44258;-50
2024/04/11 06:45:08;;;;;;;;;6.75;3.50;;;;;15.26;66.99;102588.56;5539014;25;43743;-52
2024/04/11 06:47:34;;;;;;;;;4.00;3.00;;;;;15.31;66.53;102589.34;5539433;25;44827;-53
2024/04/11 06:49:59;;;;;;;;;3.00;2.75;;;;;15.36;67.02;102584.88;5543418;25;45904;-53
2024/04/11 06:52:24;;;;;;;;;3.50;0.50;;;;;15.44;66.10;102574.19;5490960;25;61030;-53
2024/04/11 06:54:50;;;;;;;;;5.50;2.00;;;;;15.50;66.39;102570.56;5542262;25;43837;-51
2024/04/11 06:57:18;;;;;;;;;3.75;2.00;;;;;15.56;65.50;102567.81;5494591;25;76170;-53
2024/04/11 06:59:44;;;;;;;;;1.75;1.25;;;;;15.64;65.75;102565.06;5553135;25;44018;-56
2024/04/11 07:02:10;;;;;;;;;2.00;2.00;;;;;15.69;64.82;102568.47;5536598;25;66697;-54
2024/04/11 07:04:35;;;;;;;;;4.00;2.75;;;;;15.71;65.64;102564.03;5540032;25;43848;-53
2024/04/11 07:07:08;;;;;;;;;3.75;2.50;;;;;15.73;65.79;102554.31;5505313;25;68989;-57
2024/04/11 07:09:37;;;;;;;;;1.75;1.75;;;;;15.74;65.63;102556.03;5540101;25;43958;-55
2024/04/11 07:12:04;;;;;;;;;1.25;1.25;;;;;15.73;65.61;102560.44;5531509;25;44084;-53
2024/04/11 07:14:31;;;;;;;;;2.75;1.00;;;;;15.73;64.84;102560.44;5536190;25;44047;-53
2024/04/11 07:16:56;;;;;;;;;3.00;2.00;;;;;15.74;64.70;102564.88;5457928;25;45792;-53
2024/04/11 07:19:22;;;;;;;;;3.75;2.50;;;;;15.76;65.49;102549.00;5537314;25;55656;-54
2024/04/11 07:21:48;;;;;;;;;2.00;2.00;;;;;15.80;65.05;102558.59;5537779;25;43719;-52
2024/04/11 07:24:13;;;;;;;;;4.25;4.25;;;;;15.85;65.84;102561.16;5507807;25;43762;-55
2024/04/11 07:26:40;;;;;;;;;4.50;4.00;;;;;15.92;65.31;102568.06;5499589;25;75182;-53
2024/04/11 07:29:07;;;;;;;;;10.00;4.00;;;;;16.01;64.42;102567.00;5540057;25;43683;-52
2024/04/11 07:31:36;;;;;;;;;3.75;3.00;;;;;16.06;64.23;102575.66;5540249;25;43791;-54
2024/04/11 07:34:05;;;;;;;;;4.50;4.00;;;;;16.13;64.16;102575.53;5483575;25;43979;-54
2024/04/11 07:36:32;;;;;;;;;4.00;3.00;;;;;16.16;64.04;102573.72;5539964;25;43821;-52
2024/04/11 07:38:58;;;;;;;;;6.25;3.50;;;;;16.28;63.94;102589.31;5539850;25;44358;-54
2024/04/11 07:41:27;;;;;;;;;4.25;2.75;;;;;16.34;63.88;102599.75;5538223;25;44057;-53
2024/04/11 07:44:00;;;;;;;;;5.50;3.50;;;;;16.38;64.15;102596.16;5539697;25;43971;-51
2024/04/11 07:46:29;;;;;;;;;4.00;2.25;;;;;16.45;63.82;102604.78;5539757;25;43864;-49
2024/04/11 07:48:58;;;;;;;;;2.50;1.00;;;;;16.43;62.83;102602.22;5537876;25;44269;-52
2024/04/11 07:51:24;;;;;;;;;5.75;2.25;;;;;16.44;63.03;102606.56;5501032;25;44028;-50
2024/04/11 07:53:49;;;;;;;;;4.75;3.25;;;;;16.40;64.41;102612.84;5529298;25;43963;-50
2024/04/11 07:56:21;;;;;;;;;5.25;4.75;;;;;16.43;62.94;102606.59;5539739;25;44851;-54
2024/04/11 07:58:53;;;;;;;;;6.50;2.50;;;;;16.46;63.48;102610.03;5505968;25;44986;-49
2024/04/11 08:01:22;;;;;;;;;6.00;2.50;;;;;16.54;63.13;102607.25;5539753;25;43819;-53
2024/04/11 08:03:49;;;;;;;;;3.50;2.25;;;;;16.58;63.27;102618.63;5539437;25;43922;-54
2024/04/11 08:06:16;;;;;;;;;5.75;4.00;;;;;16.60;64.02;102615.03;5539367;25;43811;-51
2024/04/11 08:08:42;;;;;;;;;3.75;2.00;;;;;16.64;63.30;102615.84;5537159;25;43742;-53
2024/04/11 08:11:10;;;;;;;;;8.00;3.00;;;;;16.62;63.42;102623.81;5537572;25;43940;-54
2024/04/11 08:13:36;;;;;;;;;4.75;3.00;;;;;16.65;64.13;102631.66;5481047;25;44262;-54
2024/04/11 08:16:01;;;;;;;;;4.00;3.00;;;;;16.69;63.66;102633.34;5505529;25;47941;-54
2024/04/11 08:18:29;;;;;;;;;5.50;4.00;;;;;16.74;62.39;102640.31;5539018;25;43747;-55
2024/04/11 08:20:55;;;;;;;;;4.25;2.75;;;;;16.76;62.93;102646.44;5471570;25;43989;-54
2024/04/11 08:23:24;;;;;;;;;5.00;3.00;;;;;16.76;62.68;102651.72;5535621;25;71794;-53
2024/04/11 08:25:53;;;;;;;;;2.00;1.00;;;;;16.79;62.55;102652.53;5509386;25;44644;-52
2024/04/11 08:28:18;;;;;;;;;5.25;3.25;;;;;16.85;62.82;102646.25;5542220;25;43813;-54
2024/04/11 08:30:48;;;;;;;;;4.25;3.00;;;;;16.89;62.07;102645.25;5542777;25;43800;-54
2024/04/11 08:33:14;;;;;;;;;5.00;3.25;;;;;17.02;62.86;102644.09;5508086;25;68406;-53
2024/04/11 08:35:44;;;;;;;;;5.25;3.75;;;;;17.09;62.43;102650.13;5542044;25;44961;-52
2024/04/11 08:38:12;;;;;;;;;2.75;2.25;;;;;17.14;62.46;102647.34;5508782;25;44026;-51
2024/04/11 08:40:41;;;;;;;;;3.00;1.50;;;;;17.15;62.16;102651.75;5510040;25;43846;-54
2024/04/11 08:43:09;;;;;;;;;2.75;1.50;;;;;17.12;61.72;102663.25;5472368;25;43813;-53
2024/04/11 08:45:35;;;;;;;;;7.50;3.00;;;;;17.13;61.83;102653.56;5496581;25;44826;-56
2024/04/11 08:48:01;;;;;;;;;3.00;2.75;;;;;17.15;62.21;102659.69;5542147;25;43878;-53
2024/04/11 08:50:27;;;;;;;;;4.00;2.50;;;;;17.12;62.04;102655.31;5542326;25;43917;-52
2024/04/11 08:52:54;;;;;;;;;2.75;2.00;;;;;17.07;61.61;102654.56;5542209;25;43722;-53
2024/04/11 08:55:19;;;;;;;;;5.00;2.50;;;;;17.08;61.60;102651.88;5541967;25;44930;-53
2024/04/11 08:57:45;;;;;;;;;2.00;2.00;;;;;17.14;62.63;102655.28;5507625;25;70370;-53
2024/04/11 09:00:13;;;;;;;;;6.75;3.75;;;;;17.19;62.37;102648.09;5542158;25;43710;-54
2024/04/11 09:02:41;;;;;;;;;3.25;1.75;;;;;17.26;62.72;102649.69;5541928;25;43767;-54
2024/04/11 09:05:10;;;;;;;;;4.75;2.75;;;;;17.39;62.31;102652.94;5509269;25;45076;-54
2024/04/11 09:07:36;;;;;;;;;7.25;6.00;;;;;17.50;62.67;102660.59;5509789;25;43869;-51
2024/04/11 09:10:05;;;;;;;;;5.00;3.75;;;;;17.60;62.33;102659.44;5541978;25;43860;-53
2024/04/11 09:12:30;;;;;;;;;6.25;1.75;;;;;17.64;61.62;102656.66;5540781;25;43817;-50
2024/04/11 09:14:55;;;;;;;;;4.25;3.00;;;;;17.64;61.40;102658.47;5540744;25;66345;-52
2024/04/11 09:17:21;;;;;;;;;4.75;2.75;;;;;17.63;61.23;102662.88;5540106;25;43790;-54
2024/04/11 09:19:49;;;;;;;;;4.00;2.75;;;;;17.69;60.75;102655.66;5541675;25;43753;-50
2024/04/11 09:22:14;;;;;;;;;3.75;2.00;;;;;17.74;61.22;102659.06;5541895;25;44076;-49
2024/04/11 09:24:43;;;;;;;;;9.00;2.75;;;;;17.80;61.83;102657.13;5541484;25;44621;-52
2024/04/11 09:27:08;;;;;;;;;0.75;0.75;;;;;17.96;60.77;102659.41;5509018;25;43977;-51
2024/04/11 09:29:35;;;;;;;;;2.25;1.75;;;;;18.14;60.79;102668.63;5540660;25;68215;-51
2024/04/11 09:32:03;;;;;;;;;3.25;3.00;;;;;18.32;60.54;102677.84;5540709;25;43721;-53
2024/04/11 09:34:32;;;;;;;;;3.50;3.00;;;;;18.37;60.15;102676.78;5504110;25;46144;-52
2024/04/11 09:37:04;;;;;;;;;4.50;4.00;;;;;18.34;59.88;102676.00;5509576;25;43925;-53
2024/04/11 09:39:48;;;;;;;;;7.75;4.00;;;;;18.29;59.98;102675.28;5506040;25;44024;-54
2024/04/11 09:42:20;;;;;;;;;6.00;3.25;;;;;18.32;59.94;102677.84;5502505;25;43847;-53
2024/04/11 09:44:48;;;;;;;;;5.75;4.25;;;;;18.33;60.41;102679.59;5538071;25;43893;-54
2024/04/11 09:47:18;;;;;;;;;4.00;3.50;;;;;18.43;60.17;102672.22;5541111;25;48519;-53
2024/04/11 09:49:53;;;;;;;;;2.75;2.50;;;;;18.55;60.01;102677.19;5540043;25;43755;-53
2024/04/11 09:52:20;;;;;;;;;3.75;2.50;;;;;18.63;59.67;102666.34;5510592;25;43827;-54
2024/04/11 09:54:46;;;;;;;;;4.00;3.00;;;;;18.69;59.59;102671.47;5541452;25;43968;-53
2024/04/11 09:57:12;;;;;;;;;5.00;3.50;;;;;18.70;59.92;102678.53;5504512;25;43838;-51
2024/04/11 09:59:37;;;;;;;;;5.25;3.75;;;;;18.86;59.87;102695.72;5541397;25;43984;-52
2024/04/11 10:02:03;;;;;;;;;5.00;3.00;;;;;19.01;58.62;102701.47;5541057;25;43819;-53
2024/04/11 10:04:35;;;;;;;;;5.25;3.00;;;;;19.14;59.04;102692.19;5541311;25;44899;-52
2024/04/11 10:07:08;;;;;;;;;3.75;3.00;;;;;19.23;58.79;102699.91;5540200;25;44348;-53
2024/04/11 10:09:34;;;;;;;;;4.00;3.25;;;;;19.30;58.55;102687.25;5541489;25;43966;-54
2024/04/11 10:12:04;;;;;;;;;4.50;3.00;;;;;19.33;58.15;102690.69;5539490;25;43868;-49
2024/04/11 10:14:35;;;;;;;;;3.75;3.00;;;;;19.39;57.77;102689.66;5507399;25;45050;-52
2024/04/11 10:17:04;;;;;;;;;4.00;4.00;;;;;19.39;57.91;102684.34;5541169;25;44256;-51
2024/04/11 10:19:33;;;;;;;;;4.75;3.25;;;;;19.44;58.05;102686.81;5541327;25;43852;-53
2024/04/11 10:22:04;;;;;;;;;6.25;5.00;;;;;19.48;57.98;102684.03;5540946;25;43836;-53
2024/04/11 10:24:34;;;;;;;;;4.75;4.00;;;;;19.52;57.77;102690.97;5541030;25;44804;-52
2024/04/11 10:27:11;;;;;;;;;3.25;3.25;;;;;19.59;57.18;102686.31;5540770;25;43860;-53
2024/04/11 10:29:38;;;;;;;;;4.00;4.00;;;;;19.71;57.78;102682.38;5503069;25;43729;-49
2024/04/11 10:32:06;;;;;;;;;5.00;5.00;;;;;19.87;56.78;102683.59;5507859;25;43859;-52
2024/04/11 10:34:35;;;;;;;;;5.25;4.25;;;;;19.97;57.04;102686.78;5540211;25;44009;-53
2024/04/11 10:37:02;;;;;;;;;6.75;4.50;;;;;20.08;56.95;102691.75;5541021;25;43783;-54
2024/04/11 10:39:35;;;;;;;;;5.25;3.50;;;;;20.17;56.44;102683.44;5570182;25;43852;-57
2024/04/11 10:42:01;;;;;;;;;6.00;4.50;;;;;20.24;56.23;102684.94;5540028;25;43848;-58
2024/04/11 10:44:27;;;;;;;;;4.00;4.00;;;;;20.38;56.08;102695.09;5505719;25;43943;-54
2024/04/11 10:46:52;;;;;;;;;7.25;4.25;;;;;20.43;55.81;102694.91;5539629;25;71951;-54
2024/04/11 10:49:28;;;;;;;;;4.00;4.00;;;;;20.41;55.33;102702.94;5540085;25;57610;-52
2024/04/11 10:51:56;;;;;;;;;5.00;5.00;;;;;20.39;55.68;102693.28;5540865;25;44401;-54
2024/04/11 10:54:26;;;;;;;;;5.50;4.25;;;;;20.36;55.30;102680.97;5540604;25;43923;-55
2024/04/11 10:56:54;;;;;;;;;8.25;4.00;;;;;20.38;55.70;102683.56;5540491;25;43767;-53
2024/04/11 10:59:22;;;;;;;;;5.50;4.75;;;;;20.43;55.52;102670.97;5508353;25;43827;-55
2024/04/11 11:02:00;;;;;;;;;6.25;5.00;;;;;20.52;55.21;102672.41;5539864;25;44073;-52
2024/04/11 11:04:26;;;;;;;;;5.00;4.75;;;;;20.58;55.21;102675.72;5540573;25;44776;-54
2024/04/11 11:06:54;;;;;;;;;7.00;5.25;;;;;20.65;55.03;102681.69;5540091;25;46676;-53
2024/04/11 11:09:21;;;;;;;;;10.50;7.25;;;;;20.71;54.89;102684.09;5540652;25;43879;-50
2024/04/11 11:11:46;;;;;;;;;11.00;6.25;;;;;20.77;54.70;102673.25;5540100;25;43792;-54
2024/04/11 11:14:20;;;;;;;;;7.50;6.50;;;;;20.83;54.23;102666.81;5540485;25;45666;-50
2024/04/11 11:16:47;;;;;;;;;4.00;4.00;;;;;20.86;54.08;102662.22;5540184;25;43657;-53
2024/04/11 11:19:19;;;;;;;;;11.00;5.50;;;;;20.85;53.97;102665.81;5540250;25;43839;-54
2024/04/11 11:21:51;;;;;;;;;5.00;3.00;;;;;20.88;54.49;102662.19;5540107;25;43831;-54
2024/04/11 11:24:26;;;;;;;;;4.75;4.00;;;;;20.92;54.09;102657.59;5540301;25;44928;-54